sensor_id;sensor_type;location;lat;lon;timestamp;P1;durP1;ratioP1;P2;durP2;ratioP2
71570;SDS011;59407;42.682;23.322;2024-02-23T05:51:05;12.60;;;6.88;;
71570;SDS011;59407;42.682;23.322;2024-02-23T05:53:30;14.68;;;8.13;;
71570;SDS011;59407;42.682;23.322;2024-02-23T05:55:58;13.77;;;7.20;;
71570;SDS011;59407;42.682;23.322;2024-02-23T05:58:23;14.27;;;7.43;;
71570;SDS011;59407;42.682;23.322;2024-02-23T06:00:49;12.70;;;7.03;;
71570;SDS011;59407;42.682;23.322;2024-02-23T06:03:16;15.48;;;7.95;;
71570;SDS011;59407;42.682;23.322;2024-02-23T06:05:43;13.82;;;7.22;;
71570;SDS011;59407;42.682;23.322;2024-02-23T06:08:10;15.30;;;7.43;;
71570;SDS011;59407;42.682;23.322;2024-02-23T06:10:36;13.02;;;7.07;;
71570;SDS011;59407;42.682;23.322;2024-02-23T06:13:03;13.23;;;7.80;;
71570;SDS011;59407;42.682;23.322;2024-02-23T06:15:29;13.98;;;7.43;;
71570;SDS011;59407;42.682;23.322;2024-02-23T06:17:54;14.40;;;8.20;;
71570;SDS011;59407;42.682;23.322;2024-02-23T06:20:21;14.52;;;8.57;;
71570;SDS011;59407;42.682;23.322;2024-02-23T06:22:47;20.77;;;8.63;;
71570;SDS011;59407;42.682;23.322;2024-02-23T06:25:12;14.73;;;8.73;;
71570;SDS011;59407;42.682;23.322;2024-02-23T06:27:38;15.37;;;7.60;;
71570;SDS011;59407;42.682;23.322;2024-02-23T06:30:04;14.38;;;7.75;;
71570;SDS011;59407;42.682;23.322;2024-02-23T06:32:30;16.88;;;8.20;;
71570;SDS011;59407;42.682;23.322;2024-02-23T06:34:56;15.10;;;8.43;;
71570;SDS011;59407;42.682;23.322;2024-02-23T06:37:21;13.55;;;7.95;;
71570;SDS011;59407;42.682;23.322;2024-02-23T06:39:47;11.43;;;7.23;;
71570;SDS011;59407;42.682;23.322;2024-02-23T06:42:19;11.32;;;6.85;;
71570;SDS011;59407;42.682;23.322;2024-02-23T06:44:45;15.83;;;7.17;;
71570;SDS011;59407;42.682;23.322;2024-02-23T06:47:10;12.32;;;7.05;;
71570;SDS011;59407;42.682;23.322;2024-02-23T06:49:37;14.27;;;7.28;;
71570;SDS011;59407;42.682;23.322;2024-02-23T06:52:06;14.10;;;8.13;;
71570;SDS011;59407;42.682;23.322;2024-02-23T06:54:31;16.45;;;8.35;;
71570;SDS011;59407;42.682;23.322;2024-02-23T06:56:58;20.37;;;9.87;;
71570;SDS011;59407;42.682;23.322;2024-02-23T06:59:23;14.93;;;8.50;;
71570;SDS011;59407;42.682;23.322;2024-02-23T07:01:53;22.77;;;10.23;;
71570;SDS011;59407;42.682;23.322;2024-02-23T07:04:19;24.35;;;11.60;;
71570;SDS011;59407;42.682;23.322;2024-02-23T07:06:44;27.60;;;12.50;;
71570;SDS011;59407;42.682;23.322;2024-02-23T07:09:10;26.87;;;10.83;;
71570;SDS011;59407;42.682;23.322;2024-02-23T07:11:37;17.70;;;8.52;;
71570;SDS011;59407;42.682;23.322;2024-02-23T07:14:03;15.23;;;8.20;;
71570;SDS011;59407;42.682;23.322;2024-02-23T07:16:30;14.20;;;7.93;;
71570;SDS011;59407;42.682;23.322;2024-02-23T07:18:56;18.92;;;9.43;;
71570;SDS011;59407;42.682;23.322;2024-02-23T07:21:22;16.73;;;7.77;;
71570;SDS011;59407;42.682;23.322;2024-02-23T07:23:48;15.40;;;7.95;;
71570;SDS011;59407;42.682;23.322;2024-02-23T07:26:13;12.82;;;7.32;;
71570;SDS011;59407;42.682;23.322;2024-02-23T07:28:39;16.17;;;7.70;;
71570;SDS011;59407;42.682;23.322;2024-02-23T07:31:04;14.23;;;8.37;;
71570;SDS011;59407;42.682;23.322;2024-02-23T07:33:30;13.10;;;7.23;;
71570;SDS011;59407;42.682;23.322;2024-02-23T07:35:55;14.63;;;8.90;;
71570;SDS011;59407;42.682;23.322;2024-02-23T07:38:21;15.50;;;8.30;;
71570;SDS011;59407;42.682;23.322;2024-02-23T07:40:46;13.80;;;8.30;;
71570;SDS011;59407;42.682;23.322;2024-02-23T07:43:12;17.15;;;8.30;;
71570;SDS011;59407;42.682;23.322;2024-02-23T07:45:37;16.90;;;9.07;;
71570;SDS011;59407;42.682;23.322;2024-02-23T07:48:03;16.88;;;8.27;;
71570;SDS011;59407;42.682;23.322;2024-02-23T07:50:29;15.80;;;7.95;;
71570;SDS011;59407;42.682;23.322;2024-02-23T07:52:54;15.67;;;8.27;;
71570;SDS011;59407;42.682;23.322;2024-02-23T07:55:20;15.40;;;8.53;;
71570;SDS011;59407;42.682;23.322;2024-02-23T07:57:47;14.13;;;8.13;;
71570;SDS011;59407;42.682;23.322;2024-02-23T08:00:12;13.40;;;7.20;;
71570;SDS011;59407;42.682;23.322;2024-02-23T08:02:38;19.23;;;8.48;;
71570;SDS011;59407;42.682;23.322;2024-02-23T08:05:04;17.17;;;7.75;;
71570;SDS011;59407;42.682;23.322;2024-02-23T08:07:31;14.63;;;7.20;;
71570;SDS011;59407;42.682;23.322;2024-02-23T08:09:57;14.40;;;8.32;;
71570;SDS011;59407;42.682;23.322;2024-02-23T08:12:22;12.20;;;7.33;;
71570;SDS011;59407;42.682;23.322;2024-02-23T08:14:48;14.13;;;7.80;;
71570;SDS011;59407;42.682;23.322;2024-02-23T08:17:18;17.35;;;9.23;;
71570;SDS011;59407;42.682;23.322;2024-02-23T08:19:43;19.90;;;8.15;;
71570;SDS011;59407;42.682;23.322;2024-02-23T08:22:09;13.77;;;8.50;;
71570;SDS011;59407;42.682;23.322;2024-02-23T08:24:34;16.20;;;7.40;;
71570;SDS011;59407;42.682;23.322;2024-02-23T08:27:00;12.90;;;7.03;;
71570;SDS011;59407;42.682;23.322;2024-02-23T08:29:26;14.07;;;7.30;;
71570;SDS011;59407;42.682;23.322;2024-02-23T08:31:52;14.63;;;7.53;;
71570;SDS011;59407;42.682;23.322;2024-02-23T08:34:17;16.07;;;8.33;;
71570;SDS011;59407;42.682;23.322;2024-02-23T08:36:43;16.17;;;8.53;;
71570;SDS011;59407;42.682;23.322;2024-02-23T08:39:09;16.60;;;8.30;;
71570;SDS011;59407;42.682;23.322;2024-02-23T08:41:35;15.33;;;8.03;;
71570;SDS011;59407;42.682;23.322;2024-02-23T08:44:00;14.73;;;8.35;;
71570;SDS011;59407;42.682;23.322;2024-02-23T08:46:25;15.70;;;8.70;;
71570;SDS011;59407;42.682;23.322;2024-02-23T08:48:51;15.27;;;8.23;;
71570;SDS011;59407;42.682;23.322;2024-02-23T08:51:16;16.77;;;8.47;;
71570;SDS011;59407;42.682;23.322;2024-02-23T08:53:42;17.58;;;8.93;;
71570;SDS011;59407;42.682;23.322;2024-02-23T08:56:08;13.93;;;8.23;;
71570;SDS011;59407;42.682;23.322;2024-02-23T08:58:34;15.50;;;8.07;;
71570;SDS011;59407;42.682;23.322;2024-02-23T09:01:00;15.55;;;7.97;;
71570;SDS011;59407;42.682;23.322;2024-02-23T09:03:27;18.05;;;7.65;;
71570;SDS011;59407;42.682;23.322;2024-02-23T09:05:53;15.67;;;8.00;;
71570;SDS011;59407;42.682;23.322;2024-02-23T09:08:21;11.73;;;7.38;;
71570;SDS011;59407;42.682;23.322;2024-02-23T09:10:47;13.90;;;7.38;;
71570;SDS011;59407;42.682;23.322;2024-02-23T09:13:14;11.68;;;5.97;;
71570;SDS011;59407;42.682;23.322;2024-02-23T09:15:40;10.77;;;6.78;;
71570;SDS011;59407;42.682;23.322;2024-02-23T09:18:07;11.17;;;6.53;;
71570;SDS011;59407;42.682;23.322;2024-02-23T09:20:34;8.77;;;4.18;;
71570;SDS011;59407;42.682;23.322;2024-02-23T09:23:01;10.32;;;6.07;;
71570;SDS011;59407;42.682;23.322;2024-02-23T09:25:29;9.90;;;5.35;;
71570;SDS011;59407;42.682;23.322;2024-02-23T09:28:00;9.88;;;5.82;;
71570;SDS011;59407;42.682;23.322;2024-02-23T09:30:25;9.53;;;4.57;;
71570;SDS011;59407;42.682;23.322;2024-02-23T09:32:51;7.82;;;4.25;;
71570;SDS011;59407;42.682;23.322;2024-02-23T09:35:16;9.73;;;4.70;;
71570;SDS011;59407;42.682;23.322;2024-02-23T09:37:42;7.67;;;4.20;;
71570;SDS011;59407;42.682;23.322;2024-02-23T09:40:08;9.15;;;5.10;;
71570;SDS011;59407;42.682;23.322;2024-02-23T09:42:37;8.38;;;4.55;;
71570;SDS011;59407;42.682;23.322;2024-02-23T09:45:04;9.88;;;3.75;;
71570;SDS011;59407;42.682;23.322;2024-02-23T09:47:30;6.87;;;4.00;;
71570;SDS011;59407;42.682;23.322;2024-02-23T09:49:56;7.50;;;4.05;;
71570;SDS011;59407;42.682;23.322;2024-02-23T09:52:23;5.70;;;3.35;;
71570;SDS011;59407;42.682;23.322;2024-02-23T09:54:49;6.00;;;3.30;;
71570;SDS011;59407;42.682;23.322;2024-02-23T09:57:18;5.43;;;2.80;;
71570;SDS011;59407;42.682;23.322;2024-02-23T09:59:44;5.03;;;2.43;;
71570;SDS011;59407;42.682;23.322;2024-02-23T10:02:14;4.13;;;2.28;;
71570;SDS011;59407;42.682;23.322;2024-02-23T10:04:42;5.28;;;2.67;;
71570;SDS011;59407;42.682;23.322;2024-02-23T10:07:09;5.88;;;2.97;;
71570;SDS011;59407;42.682;23.322;2024-02-23T10:09:36;7.43;;;4.00;;
71570;SDS011;59407;42.682;23.322;2024-02-23T10:12:03;5.90;;;3.10;;
71570;SDS011;59407;42.682;23.322;2024-02-23T10:14:30;5.80;;;2.65;;
71570;SDS011;59407;42.682;23.322;2024-02-23T10:16:56;5.05;;;2.80;;
71570;SDS011;59407;42.682;23.322;2024-02-23T10:19:22;4.07;;;2.03;;
71570;SDS011;59407;42.682;23.322;2024-02-23T10:21:55;4.25;;;2.03;;
71570;SDS011;59407;42.682;23.322;2024-02-23T10:24:22;5.80;;;2.28;;
71570;SDS011;59407;42.682;23.322;2024-02-23T10:26:51;4.38;;;2.50;;
71570;SDS011;59407;42.682;23.322;2024-02-23T10:29:19;4.05;;;2.03;;
71570;SDS011;59407;42.682;23.322;2024-02-23T10:31:46;4.10;;;1.80;;
71570;SDS011;59407;42.682;23.322;2024-02-23T10:34:15;3.70;;;1.83;;
71570;SDS011;59407;42.682;23.322;2024-02-23T10:36:44;4.20;;;1.90;;
71570;SDS011;59407;42.682;23.322;2024-02-23T10:39:15;4.95;;;1.63;;
71570;SDS011;59407;42.682;23.322;2024-02-23T10:41:51;3.88;;;1.75;;
71570;SDS011;59407;42.682;23.322;2024-02-23T10:44:24;4.53;;;2.07;;
71570;SDS011;59407;42.682;23.322;2024-02-23T10:46:50;4.15;;;2.85;;
71570;SDS011;59407;42.682;23.322;2024-02-23T10:49:16;4.57;;;2.08;;
71570;SDS011;59407;42.682;23.322;2024-02-23T10:51:45;3.38;;;1.63;;
71570;SDS011;59407;42.682;23.322;2024-02-23T10:54:16;4.45;;;2.00;;
71570;SDS011;59407;42.682;23.322;2024-02-23T10:56:46;3.80;;;1.80;;
71570;SDS011;59407;42.682;23.322;2024-02-23T10:59:12;3.70;;;2.00;;
71570;SDS011;59407;42.682;23.322;2024-02-23T11:01:38;3.78;;;2.10;;
71570;SDS011;59407;42.682;23.322;2024-02-23T11:04:06;3.65;;;1.73;;
71570;SDS011;59407;42.682;23.322;2024-02-23T11:06:33;4.60;;;1.67;;
71570;SDS011;59407;42.682;23.322;2024-02-23T11:09:12;2.85;;;1.30;;
71570;SDS011;59407;42.682;23.322;2024-02-23T11:11:39;3.85;;;2.10;;
71570;SDS011;59407;42.682;23.322;2024-02-23T11:14:09;3.88;;;1.20;;
71570;SDS011;59407;42.682;23.322;2024-02-23T11:16:37;3.50;;;1.95;;
71570;SDS011;59407;42.682;23.322;2024-02-23T11:19:04;2.93;;;1.80;;
71570;SDS011;59407;42.682;23.322;2024-02-23T11:21:34;3.85;;;1.90;;
71570;SDS011;59407;42.682;23.322;2024-02-23T11:24:03;3.78;;;1.70;;
71570;SDS011;59407;42.682;23.322;2024-02-23T11:26:29;2.58;;;1.23;;
71570;SDS011;59407;42.682;23.322;2024-02-23T11:28:55;2.97;;;1.53;;
71570;SDS011;59407;42.682;23.322;2024-02-23T11:31:24;4.07;;;1.80;;
71570;SDS011;59407;42.682;23.322;2024-02-23T11:33:54;4.20;;;1.92;;
71570;SDS011;59407;42.682;23.322;2024-02-23T11:38:52;2.27;;;1.27;;
71570;SDS011;59407;42.682;23.322;2024-02-23T11:41:24;3.60;;;2.08;;
71570;SDS011;59407;42.682;23.322;2024-02-23T11:43:50;7.22;;;2.30;;
71570;SDS011;59407;42.682;23.322;2024-02-23T11:46:17;4.22;;;1.92;;
71570;SDS011;59407;42.682;23.322;2024-02-23T11:48:43;4.70;;;2.03;;
71570;SDS011;59407;42.682;23.322;2024-02-23T11:51:15;3.78;;;1.73;;
71570;SDS011;59407;42.682;23.322;2024-02-23T11:53:42;3.33;;;2.05;;
71570;SDS011;59407;42.682;23.322;2024-02-23T11:56:08;3.30;;;1.83;;
71570;SDS011;59407;42.682;23.322;2024-02-23T11:58:35;4.18;;;1.90;;
71570;SDS011;59407;42.682;23.322;2024-02-23T12:01:02;3.83;;;1.60;;
71570;SDS011;59407;42.682;23.322;2024-02-23T12:03:31;6.68;;;2.10;;
71570;SDS011;59407;42.682;23.322;2024-02-23T12:06:00;4.72;;;1.98;;
71570;SDS011;59407;42.682;23.322;2024-02-23T14:28:53;5.05;;;1.83;;
71570;SDS011;59407;42.682;23.322;2024-02-23T14:31:24;3.75;;;1.60;;
71570;SDS011;59407;42.682;23.322;2024-02-23T14:33:53;4.55;;;2.00;;
71570;SDS011;59407;42.682;23.322;2024-02-23T14:36:18;3.78;;;1.70;;
71570;SDS011;59407;42.682;23.322;2024-02-23T14:38:47;4.33;;;1.80;;
71570;SDS011;59407;42.682;23.322;2024-02-23T14:41:13;3.97;;;1.83;;
71570;SDS011;59407;42.682;23.322;2024-02-23T14:43:40;5.05;;;2.47;;
71570;SDS011;59407;42.682;23.322;2024-02-23T14:46:06;2.93;;;1.50;;
71570;SDS011;59407;42.682;23.322;2024-02-23T14:48:33;4.93;;;1.60;;
71570;SDS011;59407;42.682;23.322;2024-02-23T14:50:59;4.83;;;2.17;;
71570;SDS011;59407;42.682;23.322;2024-02-23T14:53:25;4.20;;;2.28;;
71570;SDS011;59407;42.682;23.322;2024-02-23T14:55:51;3.97;;;1.83;;
71570;SDS011;59407;42.682;23.322;2024-02-23T14:58:18;4.60;;;1.80;;
71570;SDS011;59407;42.682;23.322;2024-02-23T15:00:44;3.60;;;2.00;;
71570;SDS011;59407;42.682;23.322;2024-02-23T15:03:10;4.75;;;2.58;;
71570;SDS011;59407;42.682;23.322;2024-02-23T15:05:36;4.13;;;2.10;;
71570;SDS011;59407;42.682;23.322;2024-02-23T15:08:01;5.33;;;2.60;;
71570;SDS011;59407;42.682;23.322;2024-02-23T15:10:29;4.60;;;2.45;;
71570;SDS011;59407;42.682;23.322;2024-02-23T15:12:55;5.43;;;1.90;;
71570;SDS011;59407;42.682;23.322;2024-02-23T15:15:21;3.80;;;2.08;;
71570;SDS011;59407;42.682;23.322;2024-02-23T15:17:47;4.43;;;2.07;;
71570;SDS011;59407;42.682;23.322;2024-02-23T15:20:14;4.82;;;2.00;;
71570;SDS011;59407;42.682;23.322;2024-02-23T15:22:40;4.87;;;2.03;;
71570;SDS011;59407;42.682;23.322;2024-02-23T15:25:08;4.68;;;1.90;;
71570;SDS011;59407;42.682;23.322;2024-02-23T15:27:34;3.72;;;2.00;;
71570;SDS011;59407;42.682;23.322;2024-02-23T15:30:00;4.25;;;2.00;;
71570;SDS011;59407;42.682;23.322;2024-02-23T15:32:26;3.80;;;2.30;;
71570;SDS011;59407;42.682;23.322;2024-02-23T15:34:52;4.28;;;2.38;;
71570;SDS011;59407;42.682;23.322;2024-02-23T15:37:19;4.53;;;2.17;;
71570;SDS011;59407;42.682;23.322;2024-02-23T15:39:44;5.23;;;2.60;;
71570;SDS011;59407;42.682;23.322;2024-02-23T15:42:10;3.95;;;2.40;;
71570;SDS011;59407;42.682;23.322;2024-02-23T15:44:35;5.63;;;2.90;;
71570;SDS011;59407;42.682;23.322;2024-02-23T15:47:02;5.70;;;2.20;;
71570;SDS011;59407;42.682;23.322;2024-02-23T15:49:27;3.63;;;2.20;;
71570;SDS011;59407;42.682;23.322;2024-02-23T15:51:52;4.90;;;2.50;;
71570;SDS011;59407;42.682;23.322;2024-02-23T15:54:18;4.65;;;2.20;;
71570;SDS011;59407;42.682;23.322;2024-02-23T15:56:44;4.55;;;2.42;;
71570;SDS011;59407;42.682;23.322;2024-02-23T15:59:10;4.80;;;2.70;;
71570;SDS011;59407;42.682;23.322;2024-02-23T16:01:36;5.05;;;2.83;;
71570;SDS011;59407;42.682;23.322;2024-02-23T16:04:02;4.00;;;2.23;;
71570;SDS011;59407;42.682;23.322;2024-02-23T16:06:28;5.03;;;2.30;;
71570;SDS011;59407;42.682;23.322;2024-02-23T16:08:58;5.50;;;3.90;;
71570;SDS011;59407;42.682;23.322;2024-02-23T16:11:24;4.45;;;2.50;;
71570;SDS011;59407;42.682;23.322;2024-02-23T16:13:50;3.67;;;2.53;;
71570;SDS011;59407;42.682;23.322;2024-02-23T16:16:16;5.25;;;3.33;;
71570;SDS011;59407;42.682;23.322;2024-02-23T16:18:41;5.37;;;2.70;;
71570;SDS011;59407;42.682;23.322;2024-02-23T16:21:07;4.32;;;2.35;;
71570;SDS011;59407;42.682;23.322;2024-02-23T16:23:34;3.78;;;2.20;;
71570;SDS011;59407;42.682;23.322;2024-02-23T16:26:00;5.87;;;2.67;;
71570;SDS011;59407;42.682;23.322;2024-02-23T16:28:26;4.97;;;2.80;;
71570;SDS011;59407;42.682;23.322;2024-02-23T16:30:52;4.63;;;2.77;;
71570;SDS011;59407;42.682;23.322;2024-02-23T16:33:17;4.95;;;2.90;;
71570;SDS011;59407;42.682;23.322;2024-02-23T16:35:43;4.67;;;2.80;;
71570;SDS011;59407;42.682;23.322;2024-02-23T16:38:08;6.60;;;3.33;;
71570;SDS011;59407;42.682;23.322;2024-02-23T16:40:34;4.82;;;2.95;;
71570;SDS011;59407;42.682;23.322;2024-02-23T16:42:59;4.17;;;2.60;;
71570;SDS011;59407;42.682;23.322;2024-02-23T16:45:25;6.50;;;2.83;;
71570;SDS011;59407;42.682;23.322;2024-02-23T16:47:51;6.40;;;2.75;;
71570;SDS011;59407;42.682;23.322;2024-02-23T16:50:18;4.93;;;3.03;;
71570;SDS011;59407;42.682;23.322;2024-02-23T16:52:45;5.80;;;3.50;;
71570;SDS011;59407;42.682;23.322;2024-02-23T16:55:11;5.25;;;3.00;;
71570;SDS011;59407;42.682;23.322;2024-02-23T16:57:36;5.35;;;2.78;;
71570;SDS011;59407;42.682;23.322;2024-02-23T17:00:02;5.90;;;3.30;;
71570;SDS011;59407;42.682;23.322;2024-02-23T17:02:28;5.95;;;3.78;;
71570;SDS011;59407;42.682;23.322;2024-02-23T17:04:54;5.33;;;3.20;;
71570;SDS011;59407;42.682;23.322;2024-02-23T17:07:19;6.07;;;3.33;;
71570;SDS011;59407;42.682;23.322;2024-02-23T17:09:45;5.33;;;3.27;;
71570;SDS011;59407;42.682;23.322;2024-02-23T17:12:15;7.55;;;3.55;;
71570;SDS011;59407;42.682;23.322;2024-02-23T17:14:49;6.43;;;3.15;;
71570;SDS011;59407;42.682;23.322;2024-02-23T17:17:16;4.70;;;3.10;;
71570;SDS011;59407;42.682;23.322;2024-02-23T17:19:47;7.60;;;3.63;;
71570;SDS011;59407;42.682;23.322;2024-02-23T17:22:13;23.17;;;11.23;;
71570;SDS011;59407;42.682;23.322;2024-02-23T17:24:39;8.05;;;4.43;;
71570;SDS011;59407;42.682;23.322;2024-02-23T17:27:04;5.50;;;3.10;;
71570;SDS011;59407;42.682;23.322;2024-02-23T17:29:30;4.15;;;2.38;;
71570;SDS011;59407;42.682;23.322;2024-02-23T17:31:58;7.27;;;3.70;;
71570;SDS011;59407;42.682;23.322;2024-02-23T17:34:23;5.40;;;3.03;;
71570;SDS011;59407;42.682;23.322;2024-02-23T17:36:49;7.43;;;3.20;;
71570;SDS011;59407;42.682;23.322;2024-02-23T17:39:14;6.17;;;3.20;;
71570;SDS011;59407;42.682;23.322;2024-02-23T17:41:44;5.80;;;4.00;;
71570;SDS011;59407;42.682;23.322;2024-02-23T17:44:09;4.95;;;2.97;;
71570;SDS011;59407;42.682;23.322;2024-02-23T17:46:35;7.70;;;3.97;;
71570;SDS011;59407;42.682;23.322;2024-02-23T17:49:01;5.57;;;3.07;;
71570;SDS011;59407;42.682;23.322;2024-02-23T17:51:27;6.38;;;3.10;;
71570;SDS011;59407;42.682;23.322;2024-02-23T17:53:53;5.23;;;2.57;;
71570;SDS011;59407;42.682;23.322;2024-02-23T17:56:23;5.57;;;2.92;;
71570;SDS011;59407;42.682;23.322;2024-02-23T17:58:48;5.43;;;3.00;;
71570;SDS011;59407;42.682;23.322;2024-02-23T18:01:17;4.80;;;2.10;;
71570;SDS011;59407;42.682;23.322;2024-02-23T18:03:43;5.07;;;2.97;;
71570;SDS011;59407;42.682;23.322;2024-02-23T18:06:16;5.83;;;2.80;;
71570;SDS011;59407;42.682;23.322;2024-02-23T18:08:43;7.53;;;3.10;;
71570;SDS011;59407;42.682;23.322;2024-02-23T18:11:09;5.78;;;2.83;;
71570;SDS011;59407;42.682;23.322;2024-02-23T18:13:35;5.67;;;2.77;;
71570;SDS011;59407;42.682;23.322;2024-02-23T18:16:04;5.03;;;2.88;;
71570;SDS011;59407;42.682;23.322;2024-02-23T18:18:35;4.32;;;2.67;;
71570;SDS011;59407;42.682;23.322;2024-02-23T18:21:07;4.53;;;2.20;;
71570;SDS011;59407;42.682;23.322;2024-02-23T18:23:39;5.00;;;2.80;;
71570;SDS011;59407;42.682;23.322;2024-02-23T18:26:06;5.32;;;2.70;;
71570;SDS011;59407;42.682;23.322;2024-02-23T18:28:32;5.47;;;2.25;;
71570;SDS011;59407;42.682;23.322;2024-02-23T18:30:59;4.93;;;2.35;;
71570;SDS011;59407;42.682;23.322;2024-02-23T18:33:31;6.57;;;2.80;;
71570;SDS011;59407;42.682;23.322;2024-02-23T18:36:01;4.70;;;2.60;;
71570;SDS011;59407;42.682;23.322;2024-02-23T18:38:26;4.00;;;2.30;;
71570;SDS011;59407;42.682;23.322;2024-02-23T18:40:52;4.37;;;2.50;;
71570;SDS011;59407;42.682;23.322;2024-02-23T18:43:18;5.03;;;2.50;;
71570;SDS011;59407;42.682;23.322;2024-02-23T18:45:44;5.28;;;2.10;;
71570;SDS011;59407;42.682;23.322;2024-02-23T18:48:10;4.38;;;1.98;;
71570;SDS011;59407;42.682;23.322;2024-02-23T18:50:37;6.43;;;3.00;;
71570;SDS011;59407;42.682;23.322;2024-02-23T18:53:03;5.65;;;3.00;;
71570;SDS011;59407;42.682;23.322;2024-02-23T18:55:30;5.35;;;2.50;;
71570;SDS011;59407;42.682;23.322;2024-02-23T18:57:56;3.63;;;1.80;;
71570;SDS011;59407;42.682;23.322;2024-02-23T19:00:23;4.43;;;2.67;;
71570;SDS011;59407;42.682;23.322;2024-02-23T19:02:55;5.37;;;2.40;;
71570;SDS011;59407;42.682;23.322;2024-02-23T19:05:25;5.25;;;2.85;;
71570;SDS011;59407;42.682;23.322;2024-02-23T19:07:51;6.82;;;2.47;;
71570;SDS011;59407;42.682;23.322;2024-02-23T19:10:18;5.93;;;2.50;;
71570;SDS011;59407;42.682;23.322;2024-02-23T19:12:50;8.40;;;3.60;;
71570;SDS011;59407;42.682;23.322;2024-02-23T19:15:15;13.90;;;7.73;;
71570;SDS011;59407;42.682;23.322;2024-02-23T19:17:42;15.20;;;8.35;;
71570;SDS011;59407;42.682;23.322;2024-02-23T19:20:10;9.75;;;4.85;;
71570;SDS011;59407;42.682;23.322;2024-02-23T19:22:36;10.03;;;4.73;;
71570;SDS011;59407;42.682;23.322;2024-02-23T19:25:06;15.15;;;8.43;;
71570;SDS011;59407;42.682;23.322;2024-02-23T19:27:40;9.63;;;5.05;;
71570;SDS011;59407;42.682;23.322;2024-02-23T19:30:07;15.20;;;7.65;;
71570;SDS011;59407;42.682;23.322;2024-02-23T19:32:36;10.77;;;6.55;;
71570;SDS011;59407;42.682;23.322;2024-02-23T19:35:04;11.73;;;6.40;;
71570;SDS011;59407;42.682;23.322;2024-02-23T19:37:30;9.85;;;5.22;;
71570;SDS011;59407;42.682;23.322;2024-02-23T19:40:02;12.60;;;6.03;;
71570;SDS011;59407;42.682;23.322;2024-02-23T19:42:49;14.23;;;5.75;;
71570;SDS011;59407;42.682;23.322;2024-02-23T19:45:15;11.25;;;6.60;;
71570;SDS011;59407;42.682;23.322;2024-02-23T19:47:42;13.97;;;6.07;;
71570;SDS011;59407;42.682;23.322;2024-02-23T19:50:09;9.98;;;6.05;;
71570;SDS011;59407;42.682;23.322;2024-02-23T19:52:37;11.85;;;6.07;;
71570;SDS011;59407;42.682;23.322;2024-02-23T19:55:06;9.73;;;5.70;;
71570;SDS011;59407;42.682;23.322;2024-02-23T19:57:35;13.95;;;6.70;;
71570;SDS011;59407;42.682;23.322;2024-02-23T20:00:08;12.20;;;6.93;;
71570;SDS011;59407;42.682;23.322;2024-02-23T20:02:35;13.40;;;6.50;;
71570;SDS011;59407;42.682;23.322;2024-02-23T20:05:04;10.48;;;5.72;;
71570;SDS011;59407;42.682;23.322;2024-02-23T20:07:32;12.25;;;6.15;;
71570;SDS011;59407;42.682;23.322;2024-02-23T20:09:59;13.25;;;6.53;;
71570;SDS011;59407;42.682;23.322;2024-02-23T20:12:26;13.37;;;7.67;;
71570;SDS011;59407;42.682;23.322;2024-02-23T20:14:56;12.30;;;6.88;;
71570;SDS011;59407;42.682;23.322;2024-02-23T20:17:23;11.50;;;6.22;;
71570;SDS011;59407;42.682;23.322;2024-02-23T20:19:49;11.85;;;5.65;;
71570;SDS011;59407;42.682;23.322;2024-02-23T20:22:15;12.30;;;6.00;;
71570;SDS011;59407;42.682;23.322;2024-02-23T20:24:43;15.13;;;6.53;;
71570;SDS011;59407;42.682;23.322;2024-02-23T20:27:10;11.88;;;6.75;;
71570;SDS011;59407;42.682;23.322;2024-02-23T20:29:36;13.15;;;7.20;;
71570;SDS011;59407;42.682;23.322;2024-02-23T20:32:02;12.70;;;8.32;;
71570;SDS011;59407;42.682;23.322;2024-02-23T20:34:35;12.18;;;6.78;;
71570;SDS011;59407;42.682;23.322;2024-02-23T20:37:05;10.60;;;4.73;;
71570;SDS011;59407;42.682;23.322;2024-02-23T20:39:36;9.05;;;4.80;;
71570;SDS011;59407;42.682;23.322;2024-02-23T20:42:02;9.20;;;4.78;;
71570;SDS011;59407;42.682;23.322;2024-02-23T20:44:31;11.98;;;5.63;;
71570;SDS011;59407;42.682;23.322;2024-02-23T20:47:01;6.88;;;3.47;;
71570;SDS011;59407;42.682;23.322;2024-02-23T20:49:27;8.83;;;4.90;;
71570;SDS011;59407;42.682;23.322;2024-02-23T20:51:57;10.20;;;4.55;;
71570;SDS011;59407;42.682;23.322;2024-02-23T20:54:26;8.75;;;5.40;;
71570;SDS011;59407;42.682;23.322;2024-02-23T20:56:53;11.27;;;5.55;;
71570;SDS011;59407;42.682;23.322;2024-02-23T20:59:24;10.90;;;5.75;;
71570;SDS011;59407;42.682;23.322;2024-02-23T21:01:52;10.53;;;5.50;;
71570;SDS011;59407;42.682;23.322;2024-02-23T21:04:20;11.55;;;6.20;;
71570;SDS011;59407;42.682;23.322;2024-02-23T21:06:49;11.30;;;5.43;;
71570;SDS011;59407;42.682;23.322;2024-02-23T21:09:14;9.18;;;5.60;;
71570;SDS011;59407;42.682;23.322;2024-02-23T21:11:41;11.20;;;6.20;;
71570;SDS011;59407;42.682;23.322;2024-02-23T21:14:07;8.55;;;5.28;;
71570;SDS011;59407;42.682;23.322;2024-02-23T21:16:33;10.32;;;6.65;;
71570;SDS011;59407;42.682;23.322;2024-02-23T21:18:59;11.20;;;6.10;;
71570;SDS011;59407;42.682;23.322;2024-02-23T21:21:26;12.57;;;7.03;;
71570;SDS011;59407;42.682;23.322;2024-02-23T21:23:51;10.30;;;6.40;;
71570;SDS011;59407;42.682;23.322;2024-02-23T21:26:20;9.07;;;4.73;;
71570;SDS011;59407;42.682;23.322;2024-02-23T21:28:47;9.07;;;5.63;;
71570;SDS011;59407;42.682;23.322;2024-02-23T21:34:03;10.80;;;5.47;;
71570;SDS011;59407;42.682;23.322;2024-02-23T21:36:30;10.63;;;5.78;;
71570;SDS011;59407;42.682;23.322;2024-02-23T21:38:57;9.27;;;4.90;;
71570;SDS011;59407;42.682;23.322;2024-02-23T21:41:22;7.30;;;3.47;;
71570;SDS011;59407;42.682;23.322;2024-02-23T21:43:49;5.87;;;2.40;;
71570;SDS011;59407;42.682;23.322;2024-02-23T21:46:15;3.50;;;1.88;;
71570;SDS011;59407;42.682;23.322;2024-02-23T21:48:42;3.22;;;1.80;;
71570;SDS011;59407;42.682;23.322;2024-02-23T21:51:08;3.22;;;1.90;;
71570;SDS011;59407;42.682;23.322;2024-02-23T21:53:34;2.70;;;1.80;;
71570;SDS011;59407;42.682;23.322;2024-02-23T21:56:03;7.13;;;3.20;;
71570;SDS011;59407;42.682;23.322;2024-02-23T21:58:33;6.90;;;4.78;;
71570;SDS011;59407;42.682;23.322;2024-02-23T22:00:59;10.00;;;5.97;;
71570;SDS011;59407;42.682;23.322;2024-02-23T22:03:25;13.07;;;7.45;;
71570;SDS011;59407;42.682;23.322;2024-02-23T22:05:53;11.07;;;6.80;;
71570;SDS011;59407;42.682;23.322;2024-02-23T22:08:20;10.43;;;6.15;;
71570;SDS011;59407;42.682;23.322;2024-02-23T22:10:47;10.80;;;5.00;;
71570;SDS011;59407;42.682;23.322;2024-02-23T22:13:15;10.18;;;6.03;;
71570;SDS011;59407;42.682;23.322;2024-02-23T22:15:41;10.70;;;6.30;;
71570;SDS011;59407;42.682;23.322;2024-02-23T22:18:09;5.83;;;2.97;;
71570;SDS011;59407;42.682;23.322;2024-02-23T22:20:34;9.15;;;4.57;;
71570;SDS011;59407;42.682;23.322;2024-02-23T22:23:00;10.03;;;6.00;;
71570;SDS011;59407;42.682;23.322;2024-02-23T22:25:27;12.45;;;6.13;;
71570;SDS011;59407;42.682;23.322;2024-02-23T22:27:53;9.35;;;5.70;;
71570;SDS011;59407;42.682;23.322;2024-02-23T22:30:22;10.80;;;5.18;;
71570;SDS011;59407;42.682;23.322;2024-02-23T22:32:48;11.50;;;6.23;;
71570;SDS011;59407;42.682;23.322;2024-02-23T22:35:15;10.48;;;5.72;;
71570;SDS011;59407;42.682;23.322;2024-02-23T22:37:44;10.60;;;5.97;;
71570;SDS011;59407;42.682;23.322;2024-02-23T22:40:09;12.17;;;5.83;;
71570;SDS011;59407;42.682;23.322;2024-02-23T22:42:38;9.38;;;5.35;;